This is the latest recevied weather packets stored in our database for station/object KB3HLL. If no packets are shown the sender has not sent any weather packets the latest 10 day(s).
| Time | Temp. | Humidity | Pressure | Rain* | Wind** | Luminosity | Snow |
|---|---|---|---|---|---|---|---|
| 1777596978 | 5.56° C | 92% | 1012.9 hPa | 0 mm | - | 0 W/m² | - |
| 1777596678 | 5.56° C | 92% | 1012.8 hPa | 0 mm | - | 0 W/m² | - |
| 1777596378 | 5.56° C | 91% | 1012.7 hPa | 0 mm | - | 0 W/m² | - |
| 1777596078 | 5.56° C | 92% | 1012.7 hPa | 0 mm | - | 0 W/m² | - |
| 1777595778 | 5.56° C | 93% | 1012.6 hPa | 0 mm | - | 0 W/m² | - |
| 1777595478 | 5.56° C | 92% | 1012.6 hPa | 0 mm | - | 0 W/m² | - |
| 1777595177 | 5.56° C | 93% | 1012.5 hPa | 0 mm | - | 0 W/m² | - |
| 1777594877 | 5.56° C | 93% | 1012.5 hPa | 0 mm | - | 0 W/m² | - |
| 1777594578 | 5.56° C | 93% | 1012.4 hPa | 0 mm | - | 0 W/m² | - |
| 1777594278 | 5.56° C | 94% | 1012.3 hPa | 0 mm | - | 1 W/m² | - |
| 1777593978 | 5.56° C | 96% | 1012.3 hPa | 0 mm | - | 1 W/m² | - |
| 1777593677 | 5.56° C | 98% | 1011.8 hPa | 0 mm | - | 1 W/m² | - |
| 1777593378 | 5.56° C | 99% | 1011.4 hPa | 0 mm | - | 1 W/m² | - |
| 1777593078 | 6.11° C | 98% | 1011.7 hPa | 0 mm | - | 2 W/m² | - |
| 1777592778 | 6.11° C | 98% | 1011.4 hPa | 0 mm | - | 4 W/m² | - |
| 1777592477 | 6.11° C | 96% | 1011.7 hPa | 0 mm | - | 4 W/m² | - |
| 1777592178 | 6.11° C | 97% | 1011.2 hPa | 0 mm | - | 6 W/m² | - |
| 1777591591 | 6.11° C | 97% | 1011.3 hPa | 0 mm | - | 11 W/m² | - |
| 1777591278 | 6.11° C | 98% | 1011.1 hPa | 0 mm | - | 14 W/m² | - |
| 1777590977 | 6.11° C | 97% | 1011.1 hPa | 0 mm | - | 17 W/m² | - |
| 1777590440 | 6.67° C | 96% | 1011.2 hPa | 0 mm | - | 22 W/m² | - |
| 1777590078 | 6.67° C | 94% | 1011.2 hPa | 0 mm | - | 35 W/m² | - |
| 1777589777 | 6.67° C | 94% | 1011.1 hPa | 0 mm | - | 41 W/m² | - |
| 1777589477 | 6.67° C | 94% | 1011.1 hPa | 0 mm | - | 32 W/m² | - |
| 1777589177 | 6.67° C | 91% | 1011.1 hPa | 0 mm | - | 25 W/m² | - |
* Rain latest hour (hover to see other rain measurements)
** Current wind speed in m/s (hover to see current wind gust speed)